sensor_id;sensor_type;location;lat;lon;timestamp;pressure;altitude;pressure_sealevel;temperature
29701;BMP280;57917;51.380;-0.176;2023-02-19T00:03:27;101913.44;;;10.43
29701;BMP280;57917;51.380;-0.176;2023-02-19T00:09:24;101910.69;;;10.54
29701;BMP280;57917;51.380;-0.176;2023-02-19T00:15:34;101916.22;;;10.53
29701;BMP280;57917;51.380;-0.176;2023-02-19T00:21:46;101945.78;;;10.28
29701;BMP280;57917;51.380;-0.176;2023-02-19T00:27:36;101938.81;;;10.39
29701;BMP280;57917;51.380;-0.176;2023-02-19T00:33:31;101944.78;;;10.34
29701;BMP280;57917;51.380;-0.176;2023-02-19T00:39:22;101964.88;;;10.47
29701;BMP280;57917;51.380;-0.176;2023-02-19T00:45:10;101957.56;;;10.54
29701;BMP280;57917;51.380;-0.176;2023-02-19T00:51:03;101965.34;;;10.44
29701;BMP280;57917;51.380;-0.176;2023-02-19T00:56:56;101971.03;;;10.52
29701;BMP280;57917;51.380;-0.176;2023-02-19T01:02:43;101976.69;;;10.56
29701;BMP280;57917;51.380;-0.176;2023-02-19T01:08:31;101969.56;;;10.78
29701;BMP280;57917;51.380;-0.176;2023-02-19T01:14:19;101982.59;;;10.63
29701;BMP280;57917;51.380;-0.176;2023-02-19T01:20:07;101994.69;;;10.42
29701;BMP280;57917;51.380;-0.176;2023-02-19T01:25:56;101989.81;;;10.51
29701;BMP280;57917;51.380;-0.176;2023-02-19T01:31:46;101991.22;;;10.42
29701;BMP280;57917;51.380;-0.176;2023-02-19T01:37:44;101989.78;;;10.34
29701;BMP280;57917;51.380;-0.176;2023-02-19T01:43:32;102000.78;;;10.26
29701;BMP280;57917;51.380;-0.176;2023-02-19T01:49:33;102009.16;;;10.07
29701;BMP280;57917;51.380;-0.176;2023-02-19T01:55:22;102021.22;;;9.86
29701;BMP280;57917;51.380;-0.176;2023-02-19T02:01:10;102019.28;;;9.81
29701;BMP280;57917;51.380;-0.176;2023-02-19T02:06:58;102015.47;;;9.77
29701;BMP280;57917;51.380;-0.176;2023-02-19T02:12:51;102014.53;;;9.83
29701;BMP280;57917;51.380;-0.176;2023-02-19T02:31:57;102027.59;;;10.02
29701;BMP280;57917;51.380;-0.176;2023-02-19T02:37:50;102031.28;;;9.61
29701;BMP280;57917;51.380;-0.176;2023-02-19T02:43:40;102028.66;;;9.49
29701;BMP280;57917;51.380;-0.176;2023-02-19T02:49:32;102045.34;;;9.38
29701;BMP280;57917;51.380;-0.176;2023-02-19T02:55:42;102040.06;;;9.38
29701;BMP280;57917;51.380;-0.176;2023-02-19T03:01:37;102031.69;;;9.41
29701;BMP280;57917;51.380;-0.176;2023-02-19T03:07:52;102046.97;;;9.28
29701;BMP280;57917;51.380;-0.176;2023-02-19T03:13:41;102049.16;;;9.31
29701;BMP280;57917;51.380;-0.176;2023-02-19T03:19:50;102058.66;;;9.32
29701;BMP280;57917;51.380;-0.176;2023-02-19T03:25:39;102063.50;;;9.23
29701;BMP280;57917;51.380;-0.176;2023-02-19T03:32:18;102065.56;;;9.21
29701;BMP280;57917;51.380;-0.176;2023-02-19T03:38:15;102077.41;;;9.30
29701;BMP280;57917;51.380;-0.176;2023-02-19T03:44:29;102076.63;;;9.18
29701;BMP280;57917;51.380;-0.176;2023-02-19T03:50:30;102079.47;;;9.51
29701;BMP280;57917;51.380;-0.176;2023-02-19T03:56:32;102077.19;;;9.43
29701;BMP280;57917;51.380;-0.176;2023-02-19T04:02:34;102089.34;;;9.44
29701;BMP280;57917;51.380;-0.176;2023-02-19T04:08:25;102101.53;;;9.34
29701;BMP280;57917;51.380;-0.176;2023-02-19T04:20:09;102121.03;;;8.98
29701;BMP280;57917;51.380;-0.176;2023-02-19T04:25:58;102126.34;;;9.10
29701;BMP280;57917;51.380;-0.176;2023-02-19T04:31:46;102127.16;;;9.10
29701;BMP280;57917;51.380;-0.176;2023-02-19T04:37:33;102148.19;;;9.28
29701;BMP280;57917;51.380;-0.176;2023-02-19T04:43:20;102146.03;;;9.37
29701;BMP280;57917;51.380;-0.176;2023-02-19T04:49:07;102158.31;;;9.54
29701;BMP280;57917;51.380;-0.176;2023-02-19T04:55:05;102155.28;;;9.85
29701;BMP280;57917;51.380;-0.176;2023-02-19T05:00:52;102156.25;;;9.68
29701;BMP280;57917;51.380;-0.176;2023-02-19T05:06:39;102169.16;;;9.64
29701;BMP280;57917;51.380;-0.176;2023-02-19T05:12:28;102175.00;;;9.55
29701;BMP280;57917;51.380;-0.176;2023-02-19T05:18:15;102186.16;;;9.45
29701;BMP280;57917;51.380;-0.176;2023-02-19T05:24:05;102194.31;;;9.55
29701;BMP280;57917;51.380;-0.176;2023-02-19T05:29:52;102180.63;;;9.58
29701;BMP280;57917;51.380;-0.176;2023-02-19T05:35:44;102182.91;;;9.43
29701;BMP280;57917;51.380;-0.176;2023-02-19T05:41:31;102191.66;;;9.44
29701;BMP280;57917;51.380;-0.176;2023-02-19T05:47:17;102192.72;;;9.66
29701;BMP280;57917;51.380;-0.176;2023-02-19T05:53:04;102184.63;;;9.61
29701;BMP280;57917;51.380;-0.176;2023-02-19T05:58:52;102165.56;;;9.59
29701;BMP280;57917;51.380;-0.176;2023-02-19T06:04:40;102180.75;;;9.63
29701;BMP280;57917;51.380;-0.176;2023-02-19T06:10:27;102178.53;;;9.49
29701;BMP280;57917;51.380;-0.176;2023-02-19T06:16:14;102198.69;;;9.61
29701;BMP280;57917;51.380;-0.176;2023-02-19T06:22:03;102202.44;;;9.42
29701;BMP280;57917;51.380;-0.176;2023-02-19T06:27:49;102209.50;;;9.07
29701;BMP280;57917;51.380;-0.176;2023-02-19T06:33:38;102223.03;;;8.99
29701;BMP280;57917;51.380;-0.176;2023-02-19T06:39:26;102211.88;;;8.97
29701;BMP280;57917;51.380;-0.176;2023-02-19T06:45:13;102217.91;;;9.16
29701;BMP280;57917;51.380;-0.176;2023-02-19T06:51:01;102239.69;;;9.00
29701;BMP280;57917;51.380;-0.176;2023-02-19T06:56:48;102241.16;;;8.96
29701;BMP280;57917;51.380;-0.176;2023-02-19T07:02:34;102231.88;;;8.75
29701;BMP280;57917;51.380;-0.176;2023-02-19T07:08:21;102243.78;;;8.48
29701;BMP280;57917;51.380;-0.176;2023-02-19T07:14:14;102263.44;;;8.52
29701;BMP280;57917;51.380;-0.176;2023-02-19T07:20:01;102282.91;;;8.87
29701;BMP280;57917;51.380;-0.176;2023-02-19T07:25:48;102276.19;;;8.91
29701;BMP280;57917;51.380;-0.176;2023-02-19T07:31:35;102289.28;;;8.98
29701;BMP280;57917;51.380;-0.176;2023-02-19T07:37:21;102304.19;;;9.22
29701;BMP280;57917;51.380;-0.176;2023-02-19T07:43:08;102313.38;;;9.19
29701;BMP280;57917;51.380;-0.176;2023-02-19T07:48:55;102325.41;;;9.33
29701;BMP280;57917;51.380;-0.176;2023-02-19T07:54:42;102327.06;;;9.16
29701;BMP280;57917;51.380;-0.176;2023-02-19T08:00:29;102339.81;;;9.19
29701;BMP280;57917;51.380;-0.176;2023-02-19T08:06:16;102327.28;;;9.44
29701;BMP280;57917;51.380;-0.176;2023-02-19T08:12:03;102345.88;;;9.38
29701;BMP280;57917;51.380;-0.176;2023-02-19T08:18:08;102361.59;;;9.33
29701;BMP280;57917;51.380;-0.176;2023-02-19T08:23:55;102357.16;;;9.45
29701;BMP280;57917;51.380;-0.176;2023-02-19T08:29:42;102394.13;;;9.33
29701;BMP280;57917;51.380;-0.176;2023-02-19T08:35:29;102423.91;;;9.58
29701;BMP280;57917;51.380;-0.176;2023-02-19T08:41:16;102415.56;;;9.25
29701;BMP280;57917;51.380;-0.176;2023-02-19T08:47:03;102403.75;;;9.57
29701;BMP280;57917;51.380;-0.176;2023-02-19T08:52:51;102430.16;;;9.75
29701;BMP280;57917;51.380;-0.176;2023-02-19T08:58:39;102394.03;;;10.22
29701;BMP280;57917;51.380;-0.176;2023-02-19T09:04:26;102369.50;;;10.15
29701;BMP280;57917;51.380;-0.176;2023-02-19T09:10:14;102378.25;;;10.50
29701;BMP280;57917;51.380;-0.176;2023-02-19T09:16:03;102397.22;;;11.21
29701;BMP280;57917;51.380;-0.176;2023-02-19T09:21:53;102404.81;;;11.58
29701;BMP280;57917;51.380;-0.176;2023-02-19T09:27:41;102396.50;;;11.82
29701;BMP280;57917;51.380;-0.176;2023-02-19T09:33:27;102407.22;;;12.20
29701;BMP280;57917;51.380;-0.176;2023-02-19T09:39:14;102410.72;;;12.64
29701;BMP280;57917;51.380;-0.176;2023-02-19T09:45:03;102426.28;;;12.77
29701;BMP280;57917;51.380;-0.176;2023-02-19T09:50:51;102435.41;;;12.43
29701;BMP280;57917;51.380;-0.176;2023-02-19T09:56:38;102451.19;;;12.49
29701;BMP280;57917;51.380;-0.176;2023-02-19T10:02:26;102466.28;;;12.65
29701;BMP280;57917;51.380;-0.176;2023-02-19T10:08:18;102471.97;;;12.19
29701;BMP280;57917;51.380;-0.176;2023-02-19T10:14:07;102461.91;;;11.60
29701;BMP280;57917;51.380;-0.176;2023-02-19T10:19:58;102466.53;;;11.98
29701;BMP280;57917;51.380;-0.176;2023-02-19T10:25:53;102428.63;;;12.35
29701;BMP280;57917;51.380;-0.176;2023-02-19T10:31:42;102432.38;;;12.34
29701;BMP280;57917;51.380;-0.176;2023-02-19T10:37:29;102452.59;;;12.57
29701;BMP280;57917;51.380;-0.176;2023-02-19T10:43:26;102449.84;;;12.68
29701;BMP280;57917;51.380;-0.176;2023-02-19T10:55:36;102453.75;;;12.82
29701;BMP280;57917;51.380;-0.176;2023-02-19T11:01:24;102440.69;;;12.59
29701;BMP280;57917;51.380;-0.176;2023-02-19T11:07:17;102456.41;;;12.44
29701;BMP280;57917;51.380;-0.176;2023-02-19T11:13:05;102451.34;;;12.43
29701;BMP280;57917;51.380;-0.176;2023-02-19T11:18:54;102463.28;;;12.40
29701;BMP280;57917;51.380;-0.176;2023-02-19T11:24:47;102468.00;;;12.38
29701;BMP280;57917;51.380;-0.176;2023-02-19T11:30:42;102476.75;;;13.15
29701;BMP280;57917;51.380;-0.176;2023-02-19T11:36:34;102444.63;;;12.95
29701;BMP280;57917;51.380;-0.176;2023-02-19T11:48:43;102473.91;;;13.22
29701;BMP280;57917;51.380;-0.176;2023-02-19T12:13:39;102419.34;;;13.72
29701;BMP280;57917;51.380;-0.176;2023-02-19T12:19:34;102431.03;;;14.03
29701;BMP280;57917;51.380;-0.176;2023-02-19T12:26:18;102421.91;;;13.62
29701;BMP280;57917;51.380;-0.176;2023-02-19T12:38:44;102394.16;;;13.53
29701;BMP280;57917;51.380;-0.176;2023-02-19T12:44:51;102403.22;;;13.52
29701;BMP280;57917;51.380;-0.176;2023-02-19T12:50:41;102417.53;;;13.78
29701;BMP280;57917;51.380;-0.176;2023-02-19T12:56:40;102419.25;;;13.89
29701;BMP280;57917;51.380;-0.176;2023-02-19T13:02:39;102406.50;;;13.33
29701;BMP280;57917;51.380;-0.176;2023-02-19T13:09:02;102409.44;;;13.36
29701;BMP280;57917;51.380;-0.176;2023-02-19T13:14:56;102415.16;;;13.23
29701;BMP280;57917;51.380;-0.176;2023-02-19T13:20:45;102416.66;;;13.41
29701;BMP280;57917;51.380;-0.176;2023-02-19T13:39:32;102386.19;;;13.90
29701;BMP280;57917;51.380;-0.176;2023-02-19T13:45:22;102397.81;;;13.79
29701;BMP280;57917;51.380;-0.176;2023-02-19T13:57:18;102405.00;;;14.15
29701;BMP280;57917;51.380;-0.176;2023-02-19T14:03:28;102412.31;;;14.29
29701;BMP280;57917;51.380;-0.176;2023-02-19T14:09:55;102391.66;;;14.10
29701;BMP280;57917;51.380;-0.176;2023-02-19T14:15:48;102378.38;;;14.15
29701;BMP280;57917;51.380;-0.176;2023-02-19T14:21:38;102391.59;;;13.95
29701;BMP280;57917;51.380;-0.176;2023-02-19T14:27:26;102386.47;;;13.88
29701;BMP280;57917;51.380;-0.176;2023-02-19T14:33:29;102382.03;;;13.99
29701;BMP280;57917;51.380;-0.176;2023-02-19T14:45:15;102374.25;;;13.61
29701;BMP280;57917;51.380;-0.176;2023-02-19T14:51:21;102387.66;;;13.71
29701;BMP280;57917;51.380;-0.176;2023-02-19T14:57:14;102382.19;;;13.82
29701;BMP280;57917;51.380;-0.176;2023-02-19T15:03:03;102375.19;;;14.13
29701;BMP280;57917;51.380;-0.176;2023-02-19T15:08:54;102373.13;;;13.83
29701;BMP280;57917;51.380;-0.176;2023-02-19T15:14:46;102374.00;;;13.94
29701;BMP280;57917;51.380;-0.176;2023-02-19T15:20:35;102369.19;;;13.96
29701;BMP280;57917;51.380;-0.176;2023-02-19T15:26:33;102361.91;;;14.23
29701;BMP280;57917;51.380;-0.176;2023-02-19T15:32:23;102348.34;;;14.29
29701;BMP280;57917;51.380;-0.176;2023-02-19T15:38:14;102361.88;;;14.13
29701;BMP280;57917;51.380;-0.176;2023-02-19T15:50:11;102335.25;;;14.23
29701;BMP280;57917;51.380;-0.176;2023-02-19T15:56:18;102321.31;;;14.01
29701;BMP280;57917;51.380;-0.176;2023-02-19T16:02:15;102309.56;;;13.97
29701;BMP280;57917;51.380;-0.176;2023-02-19T16:14:38;102295.72;;;14.00
29701;BMP280;57917;51.380;-0.176;2023-02-19T16:20:32;102304.31;;;14.12
29701;BMP280;57917;51.380;-0.176;2023-02-19T16:26:20;102299.13;;;13.90
29701;BMP280;57917;51.380;-0.176;2023-02-19T16:38:25;102288.03;;;13.57
29701;BMP280;57917;51.380;-0.176;2023-02-19T16:50:21;102282.97;;;13.60
29701;BMP280;57917;51.380;-0.176;2023-02-19T16:56:15;102284.06;;;13.28
29701;BMP280;57917;51.380;-0.176;2023-02-19T17:02:06;102282.91;;;13.50
29701;BMP280;57917;51.380;-0.176;2023-02-19T17:07:59;102285.72;;;13.34
29701;BMP280;57917;51.380;-0.176;2023-02-19T17:13:49;102300.31;;;13.31
29701;BMP280;57917;51.380;-0.176;2023-02-19T17:19:37;102297.03;;;13.19
29701;BMP280;57917;51.380;-0.176;2023-02-19T17:25:24;102307.22;;;13.01
29701;BMP280;57917;51.380;-0.176;2023-02-19T17:31:14;102305.84;;;12.98
29701;BMP280;57917;51.380;-0.176;2023-02-19T17:37:04;102301.94;;;12.79
29701;BMP280;57917;51.380;-0.176;2023-02-19T17:42:51;102323.97;;;12.74
29701;BMP280;57917;51.380;-0.176;2023-02-19T17:48:41;102313.16;;;12.59
29701;BMP280;57917;51.380;-0.176;2023-02-19T17:54:36;102318.94;;;12.56
29701;BMP280;57917;51.380;-0.176;2023-02-19T18:00:28;102322.84;;;12.27
29701;BMP280;57917;51.380;-0.176;2023-02-19T18:06:47;102343.94;;;12.17
29701;BMP280;57917;51.380;-0.176;2023-02-19T18:13:06;102351.34;;;12.15
29701;BMP280;57917;51.380;-0.176;2023-02-19T18:18:56;102341.44;;;12.11
29701;BMP280;57917;51.380;-0.176;2023-02-19T18:24:48;102352.97;;;12.00
29701;BMP280;57917;51.380;-0.176;2023-02-19T18:30:36;102350.72;;;11.75
29701;BMP280;57917;51.380;-0.176;2023-02-19T18:36:26;102343.56;;;11.76
29701;BMP280;57917;51.380;-0.176;2023-02-19T18:42:13;102348.06;;;11.75
29701;BMP280;57917;51.380;-0.176;2023-02-19T18:48:03;102354.03;;;11.82
29701;BMP280;57917;51.380;-0.176;2023-02-19T18:53:50;102324.75;;;11.77
29701;BMP280;57917;51.380;-0.176;2023-02-19T18:59:40;102331.97;;;11.65
29701;BMP280;57917;51.380;-0.176;2023-02-19T19:05:30;102315.53;;;11.63
29701;BMP280;57917;51.380;-0.176;2023-02-19T19:11:17;102310.63;;;11.55
29701;BMP280;57917;51.380;-0.176;2023-02-19T19:17:04;102306.69;;;11.29
29701;BMP280;57917;51.380;-0.176;2023-02-19T19:22:51;102339.94;;;11.04
29701;BMP280;57917;51.380;-0.176;2023-02-19T19:28:41;102343.13;;;11.06
29701;BMP280;57917;51.380;-0.176;2023-02-19T19:34:30;102343.22;;;10.83
29701;BMP280;57917;51.380;-0.176;2023-02-19T19:40:17;102346.28;;;10.91
29701;BMP280;57917;51.380;-0.176;2023-02-19T19:46:05;102347.53;;;11.00
29701;BMP280;57917;51.380;-0.176;2023-02-19T19:51:54;102355.59;;;10.94
29701;BMP280;57917;51.380;-0.176;2023-02-19T19:57:44;102359.97;;;11.00
29701;BMP280;57917;51.380;-0.176;2023-02-19T20:03:31;102371.22;;;10.67
29701;BMP280;57917;51.380;-0.176;2023-02-19T20:09:20;102355.44;;;10.61
29701;BMP280;57917;51.380;-0.176;2023-02-19T20:15:12;102357.78;;;10.46
29701;BMP280;57917;51.380;-0.176;2023-02-19T20:20:59;102377.47;;;10.27
29701;BMP280;57917;51.380;-0.176;2023-02-19T20:26:45;102375.41;;;10.29
29701;BMP280;57917;51.380;-0.176;2023-02-19T20:32:32;102377.81;;;10.19
29701;BMP280;57917;51.380;-0.176;2023-02-19T20:38:19;102373.06;;;9.98
29701;BMP280;57917;51.380;-0.176;2023-02-19T20:44:06;102360.75;;;10.26
29701;BMP280;57917;51.380;-0.176;2023-02-19T20:49:55;102355.56;;;9.96
29701;BMP280;57917;51.380;-0.176;2023-02-19T20:55:44;102361.34;;;10.05
29701;BMP280;57917;51.380;-0.176;2023-02-19T21:01:31;102370.84;;;9.94
29701;BMP280;57917;51.380;-0.176;2023-02-19T21:07:18;102356.47;;;9.79
29701;BMP280;57917;51.380;-0.176;2023-02-19T21:19:58;102347.72;;;9.78
29701;BMP280;57917;51.380;-0.176;2023-02-19T21:25:45;102360.63;;;9.45
29701;BMP280;57917;51.380;-0.176;2023-02-19T21:31:40;102364.34;;;9.67
29701;BMP280;57917;51.380;-0.176;2023-02-19T21:37:27;102350.94;;;9.92
29701;BMP280;57917;51.380;-0.176;2023-02-19T21:43:15;102367.69;;;9.63
29701;BMP280;57917;51.380;-0.176;2023-02-19T21:49:03;102374.53;;;9.52
29701;BMP280;57917;51.380;-0.176;2023-02-19T21:54:50;102397.63;;;9.45
29701;BMP280;57917;51.380;-0.176;2023-02-19T22:00:36;102398.06;;;9.42
29701;BMP280;57917;51.380;-0.176;2023-02-19T22:06:25;102402.94;;;9.09
29701;BMP280;57917;51.380;-0.176;2023-02-19T22:12:15;102411.31;;;9.06
29701;BMP280;57917;51.380;-0.176;2023-02-19T22:18:02;102427.31;;;8.93
29701;BMP280;57917;51.380;-0.176;2023-02-19T22:23:51;102427.22;;;8.82
29701;BMP280;57917;51.380;-0.176;2023-02-19T22:29:38;102430.81;;;8.87
29701;BMP280;57917;51.380;-0.176;2023-02-19T22:35:26;102429.53;;;8.71
29701;BMP280;57917;51.380;-0.176;2023-02-19T22:41:14;102432.13;;;8.78
29701;BMP280;57917;51.380;-0.176;2023-02-19T22:47:01;102429.03;;;8.63
29701;BMP280;57917;51.380;-0.176;2023-02-19T22:52:48;102434.97;;;8.77
29701;BMP280;57917;51.380;-0.176;2023-02-19T22:58:35;102429.06;;;8.32
29701;BMP280;57917;51.380;-0.176;2023-02-19T23:04:23;102425.81;;;8.30
29701;BMP280;57917;51.380;-0.176;2023-02-19T23:10:11;102411.56;;;8.37
29701;BMP280;57917;51.380;-0.176;2023-02-19T23:15:58;102410.75;;;8.12
29701;BMP280;57917;51.380;-0.176;2023-02-19T23:21:45;102410.22;;;8.28
29701;BMP280;57917;51.380;-0.176;2023-02-19T23:27:32;102407.06;;;8.13
29701;BMP280;57917;51.380;-0.176;2023-02-19T23:33:19;102403.25;;;7.72
29701;BMP280;57917;51.380;-0.176;2023-02-19T23:39:07;102399.53;;;7.86
29701;BMP280;57917;51.380;-0.176;2023-02-19T23:44:54;102395.06;;;7.86
29701;BMP280;57917;51.380;-0.176;2023-02-19T23:50:41;102381.22;;;7.66
29701;BMP280;57917;51.380;-0.176;2023-02-19T23:56:28;102380.66;;;7.51
